Terminal Aerodrome Forecast
Issued by NWS

Home | Current Version | Previous Version | Text Only | Print | Product List | Glossary On
Versions: 1 2 3 4 5 6 7 8 9 10 11 12 13 14 15 16
000
FTUS45 KTFX 172300
TAFHLN
TAF
KHLN 172339Z 1800/1824 23010KT P6SM VCSH SCT040 OVC070
      TEMPO 1800/1802 26010G20KT
     FM180600 27011KT P6SM -SHRA SCT025 OVC045
      TEMPO 1807/1811 -SHRA BKN025
     FM181400 27011G21KT P6SM VCSH SCT035 BKN060
     FM181800 27020G30KT P6SM SCT040 BKN070=

USA.gov is the U.S. government's official web portal to all federal, state and local government web resources and services.